Time;durP1;ratioP1;P1;durP2;ratioP2;P2;SDS_P1;SDS_P2;PMS_P1;PMS_P2;Temp;Humidity;BMP_temperature;BMP_pressure;BME280_temperature;BME280_humidity;BME280_pressure;Samples;Min_cycle;Max_cycle;Signal;HPM_P1;HPM_P2
2022/05/23 00:01:35;;;;;;;10.52;3.53;;;;;;;9.07;100.00;101208.59;5093128;28;20032;-77
2022/05/23 00:04:01;;;;;;;9.95;4.40;;;;;;;9.12;100.00;101216.94;5092600;28;20028;-76
2022/05/23 00:06:27;;;;;;;11.60;4.78;;;;;;;9.07;100.00;101184.41;5079662;28;20403;-77
2022/05/23 00:08:52;;;;;;;10.38;4.63;;;;;;;8.98;100.00;101170.25;5096144;28;20032;-76
2022/05/23 00:11:19;;;;;;;11.05;4.10;;;;;;;9.15;100.00;101204.00;5090598;28;20060;-76
2022/05/23 00:13:46;;;;;;;10.98;4.68;;;;;;;9.12;100.00;101200.84;5090481;28;20051;-76
2022/05/23 00:16:20;;;;;;;10.88;4.25;;;;;;;9.10;100.00;101194.81;5092757;28;20016;-75
2022/05/23 00:18:46;;;;;;;12.77;4.25;;;;;;;9.07;100.00;101190.66;5090981;28;20019;-76
2022/05/23 00:21:12;;;;;;;9.43;4.40;;;;;;;9.04;100.00;101191.00;5093739;28;20037;-76
2022/05/23 00:23:37;;;;;;;8.43;4.35;;;;;;;8.93;100.00;101173.44;5091210;28;20079;-77
2022/05/23 00:26:03;;;;;;;14.00;4.80;;;;;;;9.06;100.00;101191.66;5093256;28;20024;-77
2022/05/23 00:28:29;;;;;;;10.07;5.20;;;;;;;8.79;100.00;101147.41;5096873;28;20036;-76
2022/05/23 00:30:54;;;;;;;10.73;4.63;;;;;;;9.05;100.00;101187.28;5095902;28;20042;-77
2022/05/23 00:36:04;;;;;;;10.43;4.35;;;;;;;8.61;100.00;101106.59;5098850;28;20069;-77
2022/05/23 00:38:29;;;;;;;10.65;5.00;;;;;;;9.15;100.00;101189.75;5097943;28;20028;-76
2022/05/23 00:44:01;;;;;;;13.35;5.07;;;;;;;9.07;100.00;101168.31;5090181;28;20094;-76
2022/05/23 00:46:27;;;;;;;11.00;4.93;;;;;;;9.07;100.00;101163.81;5090879;28;20024;-76
2022/05/23 00:48:52;;;;;;;11.55;5.15;;;;;;;8.90;100.00;101143.47;5091302;28;20076;-76
2022/05/23 00:51:19;;;;;;;10.90;5.32;;;;;;;9.13;100.00;101183.72;5092301;28;20082;-76
2022/05/23 00:53:51;;;;;;;14.30;6.00;;;;;;;9.05;100.00;101159.63;5091430;28;20220;-76
2022/05/23 00:56:22;;;;;;;11.48;5.55;;;;;;;9.09;100.00;101166.28;5093686;28;20095;-76
2022/05/23 00:58:54;;;;;;;13.02;6.00;;;;;;;9.11;100.00;101175.03;5089142;28;20035;-76
2022/05/23 01:01:25;;;;;;;12.85;5.60;;;;;;;9.09;100.00;101160.94;5078620;28;20031;-77
2022/05/23 01:03:50;;;;;;;11.95;5.85;;;;;;;9.08;100.00;101164.63;5092699;28;20016;-76
2022/05/23 01:06:16;;;;;;;11.05;5.97;;;;;;;9.04;100.00;101155.25;5072488;28;20029;-76
2022/05/23 01:08:42;;;;;;;13.55;5.63;;;;;;;9.11;100.00;101164.28;5092082;28;20040;-76
2022/05/23 01:11:08;;;;;;;14.70;6.07;;;;;;;9.07;100.00;101157.56;5089213;28;20024;-76
2022/05/23 01:13:34;;;;;;;11.57;5.70;;;;;;;9.12;100.00;101163.25;5072552;28;20032;-76
2022/05/23 01:15:59;;;;;;;10.25;5.82;;;;;;;8.78;100.00;101105.50;5091869;28;20442;-76
2022/05/23 01:18:25;;;;;;;13.48;6.10;;;;;;;9.02;100.00;101146.56;5092281;28;20174;-76
2022/05/23 01:20:56;;;;;;;15.10;6.57;;;;;;;9.04;100.00;101158.78;5090854;28;20377;-76
2022/05/23 01:23:27;;;;;;;12.45;6.10;;;;;;;8.99;100.00;101158.50;5093025;28;20016;-76
2022/05/23 01:25:55;;;;;;;11.10;6.40;;;;;;;8.97;100.00;101162.34;5089222;28;20468;-76
2022/05/23 01:28:22;;;;;;;16.77;6.22;;;;;;;8.97;100.00;101162.34;5093234;28;20046;-76
2022/05/23 01:30:47;;;;;;;11.38;6.03;;;;;;;8.98;100.00;101156.00;5089336;28;20028;-76
2022/05/23 01:33:13;;;;;;;15.52;6.60;;;;;;;8.98;100.00;101158.69;5090215;28;20042;-76
2022/05/23 01:35:40;;;;;;;13.55;6.75;;;;;;;9.02;100.00;101146.56;5091721;28;20078;-76
2022/05/23 01:38:06;;;;;;;11.40;6.55;;;;;;;9.05;100.00;101151.56;5072662;28;20020;-76
2022/05/23 01:40:32;;;;;;;17.88;7.25;;;;;;;9.03;100.00;101150.91;5093007;28;20032;-76
2022/05/23 01:42:57;;;;;;;15.23;7.10;;;;;;;9.07;100.00;101165.63;5087492;28;20033;-76
2022/05/23 01:45:26;;;;;;;15.02;7.20;;;;;;;9.10;100.00;101157.22;5089882;28;20045;-76
2022/05/23 01:47:53;;;;;;;15.15;7.13;;;;;;;9.13;100.00;101154.19;5088096;28;20533;-76
2022/05/23 01:50:19;;;;;;;17.13;7.32;;;;;;;9.16;100.00;101153.81;5075144;28;20112;-76
2022/05/23 01:52:45;;;;;;;13.27;6.93;;;;;;;9.19;100.00;101164.19;5080786;28;20126;-76
2022/05/23 01:55:10;;;;;;;17.58;7.13;;;;;;;9.13;100.00;101156.84;5072218;28;20119;-76
2022/05/23 01:57:35;;;;;;;11.52;6.80;;;;;;;9.22;100.00;101163.84;5084753;28;20055;-76
2022/05/23 02:02:47;;;;;;;13.13;6.93;;;;;;;9.22;100.00;101149.56;5095601;28;20039;-76
2022/05/23 02:05:17;;;;;;;12.57;6.63;;;;;;;9.31;100.00;101154.69;5094460;28;20525;-76
2022/05/23 02:07:43;;;;;;;10.60;6.63;;;;;;;9.25;100.00;101142.00;5077854;28;20032;-76
2022/05/23 02:10:10;;;;;;;15.15;7.03;;;;;;;9.30;100.00;101144.13;5091651;28;20026;-76
2022/05/23 02:12:36;;;;;;;15.82;7.25;;;;;;;9.38;100.00;101146.75;5095227;28;20101;-76
2022/05/23 02:15:02;;;;;;;15.93;7.20;;;;;;;9.38;100.00;101141.38;5099601;28;20055;-76
2022/05/23 02:17:28;;;;;;;15.27;7.40;;;;;;;9.33;100.00;101133.00;5095382;28;20032;-76
2022/05/23 02:19:53;;;;;;;15.35;7.32;;;;;;;9.23;100.00;101117.16;5095396;28;20502;-76
2022/05/23 02:22:18;;;;;;;13.55;7.10;;;;;;;9.38;100.00;101128.78;5091076;28;20070;-76
2022/05/23 02:24:44;;;;;;;12.05;7.32;;;;;;;9.29;100.00;101107.56;5078782;28;20032;-76
2022/05/23 02:27:09;;;;;;;12.77;7.65;;;;;;;9.53;100.00;101144.06;5093681;28;20024;-76
2022/05/23 02:29:35;;;;;;;14.65;7.55;;;;;;;9.51;100.00;101130.00;5090482;28;20059;-76
2022/05/23 02:32:01;;;;;;;14.60;7.82;;;;;;;9.44;100.00;101124.53;5094738;28;20059;-76
2022/05/23 02:34:26;;;;;;;12.25;7.78;;;;;;;9.43;100.00;101125.53;5093844;28;20028;-76
2022/05/23 02:36:52;;;;;;;16.35;8.07;;;;;;;9.48;100.00;101125.00;5096295;28;20032;-76
2022/05/23 02:39:18;;;;;;;11.98;7.07;;;;;;;9.36;100.00;101105.78;5100878;28;20514;-76
2022/05/23 02:41:43;;;;;;;13.30;7.25;;;;;;;9.13;100.00;101058.34;5083828;28;20025;-77
2022/05/23 02:44:09;;;;;;;13.90;7.35;;;;;;;9.55;100.00;101120.53;5075052;28;20432;-76
2022/05/23 02:46:35;;;;;;;16.88;7.75;;;;;;;9.42;100.00;101099.69;5079741;28;20028;-76
2022/05/23 02:49:00;;;;;;;15.40;7.95;;;;;;;9.44;100.00;101097.66;5095682;28;20617;-76
2022/05/23 02:51:25;;;;;;;14.05;7.18;;;;;;;9.56;100.00;101114.13;5074547;28;20062;-76
2022/05/23 02:53:51;;;;;;;11.38;6.72;;;;;;;9.59;100.00;101111.91;5107270;28;20052;-76
2022/05/23 02:56:17;;;;;;;16.58;6.78;;;;;;;9.63;100.00;101112.38;5056791;28;20174;-76
2022/05/23 02:58:43;;;;;;;15.27;6.18;;;;;;;9.67;100.00;101110.16;5074414;28;20032;-77
2022/05/23 03:01:09;;;;;;;13.18;5.70;;;;;;;9.60;100.00;101092.13;5093650;28;20335;-76
2022/05/23 03:03:34;;;;;;;12.55;6.13;;;;;;;9.57;100.00;101078.19;5094838;28;20093;-76
2022/05/23 03:06:00;;;;;;;13.13;6.45;;;;;;;9.78;100.00;101107.84;5092487;28;20062;-76
2022/05/23 03:08:27;;;;;;;12.45;6.20;;;;;;;9.86;100.00;101109.59;5094484;28;20085;-76
2022/05/23 03:10:56;;;;;;;9.15;5.45;;;;;;;10.00;100.00;101105.22;5093320;28;20028;-76
2022/05/23 03:13:23;;;;;;;15.88;5.68;;;;;;;10.20;100.00;101092.88;5095948;28;20027;-77
2022/05/23 03:15:48;;;;;;;10.75;5.70;;;;;;;10.68;100.00;101109.31;5077310;28;20020;-75
2022/05/23 03:18:13;;;;;;;8.60;5.75;;;;;;;10.69;100.00;101110.97;5094140;28;20675;-76
2022/05/23 03:20:39;;;;;;;11.10;6.03;;;;;;;10.56;100.00;101106.31;5040068;28;20051;-76
2022/05/23 03:28:34;;;;;;;;;;;;;;;10.66;100.00;101110.53;5093160;28;20093;-76
2022/05/23 03:30:59;;;;;;;10.75;5.63;;;;;;;10.71;100.00;101111.63;5092816;28;19916;-76
2022/05/23 03:33:25;;;;;;;12.27;6.15;;;;;;;11.08;100.00;101114.22;5096093;28;20051;-76
2022/05/23 03:35:50;;;;;;;7.88;5.05;;;;;;;11.69;100.00;101096.41;5094310;28;20027;-76
2022/05/23 03:38:16;;;;;;;11.55;4.97;;;;;;;12.41;100.00;101107.69;5076526;28;20110;-76
2022/05/23 03:40:43;;;;;;;11.95;5.72;;;;;;;12.95;100.00;101095.97;5095553;28;20028;-76
2022/05/23 03:43:08;;;;;;;12.98;5.47;;;;;;;13.31;100.00;101109.06;5091114;28;20701;-76
2022/05/23 03:45:35;;;;;;;10.70;4.57;;;;;;;12.65;100.00;101098.22;5092510;28;20059;-76
2022/05/23 03:48:00;;;;;;;8.48;4.18;;;;;;;12.21;100.00;101072.56;5093350;28;20453;-76
2022/05/23 03:50:29;;;;;;;11.23;4.00;;;;;;;12.17;100.00;101080.25;5090679;28;20028;-76
2022/05/23 03:52:54;;;;;;;10.95;4.60;;;;;;;12.26;100.00;101091.69;5076647;28;20469;-76
2022/05/23 03:55:20;;;;;;;12.27;4.30;;;;;;;12.42;100.00;101091.31;5091218;28;20035;-77
2022/05/23 03:57:46;;;;;;;10.27;4.15;;;;;;;13.54;100.00;101087.00;5091880;28;20067;-77
2022/05/23 04:00:12;;;;;;;14.10;4.07;;;;;;;14.59;100.00;101083.19;5087492;28;20024;-76
2022/05/23 04:02:39;;;;;;;13.07;3.88;;;;;;;14.57;100.00;101075.31;5072319;28;20032;-77
2022/05/23 04:05:05;;;;;;;19.98;4.15;;;;;;;15.06;100.00;101075.53;5089633;28;20036;-77
2022/05/23 04:07:33;;;;;;;14.18;3.63;;;;;;;15.37;100.00;101072.75;5093665;28;20032;-77
2022/05/23 04:09:59;;;;;;;15.82;3.53;;;;;;;14.92;100.00;101078.34;5090885;28;20039;-76
2022/05/23 04:12:24;;;;;;;11.32;3.22;;;;;;;15.42;100.00;101080.19;5093384;28;20400;-77
2022/05/23 04:14:49;;;;;;;13.77;3.28;;;;;;;15.79;100.00;101078.34;5076494;28;20059;-77
2022/05/23 04:17:14;;;;;;;26.60;4.50;;;;;;;16.09;100.00;101083.84;5092804;28;20032;-77
2022/05/23 04:19:40;;;;;;;17.48;3.42;;;;;;;16.04;100.00;101083.69;5095597;28;20081;-77
2022/05/23 04:22:05;;;;;;;13.52;3.60;;;;;;;15.51;100.00;101070.72;5096779;28;20083;-77
2022/05/23 04:24:30;;;;;;;11.65;3.53;;;;;;;15.74;100.00;101080.91;5090892;28;20032;-77
2022/05/23 04:26:57;;;;;;;11.73;3.63;;;;;;;15.96;100.00;101060.41;5083451;28;20035;-77
2022/05/23 04:29:24;;;;;;;21.67;3.70;;;;;;;16.17;100.00;101066.41;5099233;28;20119;-77
2022/05/23 04:31:49;;;;;;;19.17;3.47;;;;;;;16.17;100.00;101052.81;5100769;28;20020;-78
2022/05/23 04:36:59;;;;;;;12.77;2.95;;;;;;;15.20;100.00;101060.81;5088287;28;20358;-77
2022/05/23 04:39:24;;;;;;;14.80;2.80;;;;;;;14.64;100.00;101056.31;5089849;28;20023;-77
2022/05/23 04:41:52;;;;;;;14.95;2.97;;;;;;;14.37;100.00;101069.13;5082995;28;20031;-77
2022/05/23 04:44:17;;;;;;;13.00;2.72;;;;;;;14.13;100.00;101057.19;5091265;28;20474;-76
2022/05/23 04:49:49;;;;;;;10.70;2.63;;;;;;;13.90;100.00;101049.59;5074122;28;20039;-77
2022/05/23 04:52:16;;;;;;;8.85;2.80;;;;;;;14.03;100.00;101072.00;5087860;28;20077;-78
2022/05/23 04:54:42;;;;;;;14.63;3.45;;;;;;;14.42;100.00;101053.91;5086727;28;20028;-78
2022/05/23 04:57:10;;;;;;;12.73;2.88;;;;;;;15.78;100.00;101052.28;5089322;28;20040;-78
2022/05/23 04:59:36;;;;;;;14.25;3.17;;;;;;;16.73;100.00;101057.00;5085985;28;20028;-78
2022/05/23 05:02:02;;;;;;;13.32;3.10;;;;;;;17.75;100.00;101063.97;5091891;28;20107;-77
2022/05/23 05:04:28;;;;;;;14.82;3.05;;;;;;;18.49;100.00;101053.16;5091721;28;20059;-78
2022/05/23 05:06:54;;;;;;;13.88;2.67;;;;;;;18.37;100.00;101052.38;5090753;28;20492;-78
2022/05/23 05:09:19;;;;;;;11.70;2.78;;;;;;;17.38;100.00;101051.50;5078137;28;20041;-78
2022/05/23 05:11:45;;;;;;;11.15;2.55;;;;;;;16.99;100.00;101046.78;5100461;28;20092;-77
2022/05/23 05:14:10;;;;;;;21.33;3.00;;;;;;;16.91;100.00;101056.09;5080800;28;20024;-77
2022/05/23 05:16:36;;;;;;;8.60;2.38;;;;;;;16.52;100.00;101052.09;5089764;28;20040;-77
2022/05/23 05:19:01;;;;;;;10.88;2.38;;;;;;;16.19;100.00;101048.81;5084543;28;20039;-77
2022/05/23 05:21:29;;;;;;;12.63;2.50;;;;;;;16.04;100.00;101051.09;5083681;28;20357;-77
2022/05/23 05:23:55;;;;;;;12.70;2.20;;;;;;;16.32;100.00;101042.34;5067774;28;20063;-78
2022/05/23 05:26:21;;;;;;;8.25;1.98;;;;;;;16.39;100.00;101045.81;5084901;28;20048;-77
2022/05/23 05:28:46;;;;;;;13.35;2.25;;;;;;;17.12;100.00;101043.84;5092588;28;20032;-77
2022/05/23 05:31:21;;;;;;;11.57;1.60;;;;;;;17.79;100.00;101048.84;5082556;28;20023;-77
2022/05/23 05:33:52;;;;;;;8.00;1.52;;;;;;;18.15;100.00;101047.66;5102599;28;20039;-78
2022/05/23 05:36:24;;;;;;;4.45;1.25;;;;;;;18.10;100.00;101038.56;5091390;28;20020;-78
2022/05/23 05:39:00;;;;;;;3.05;1.17;;;;;;;17.99;100.00;101040.25;5093114;28;20024;-77
2022/05/23 05:41:30;;;;;;;5.45;1.58;;;;;;;17.67;100.00;101035.22;5087611;28;20021;-77
2022/05/23 05:44:01;;;;;;;3.60;1.23;;;;;;;17.48;100.00;101045.47;5092767;28;20095;-78
2022/05/23 05:46:32;;;;;;;4.00;1.30;;;;;;;17.18;100.00;101039.31;5092758;28;20016;-78
2022/05/23 05:49:03;;;;;;;4.18;1.30;;;;;;;16.86;100.00;101037.78;5094875;28;20026;-78
2022/05/23 05:51:30;;;;;;;5.75;1.35;;;;;;;16.65;100.00;101036.44;5094743;28;20020;-78
2022/05/23 05:53:55;;;;;;;4.47;1.02;;;;;;;16.47;100.00;101039.22;5093293;28;20378;-78
2022/05/23 05:56:21;;;;;;;3.38;1.30;;;;;;;16.23;100.00;101027.47;5093491;28;20023;-78
2022/05/23 05:58:48;;;;;;;3.15;1.35;;;;;;;16.36;100.00;101040.84;5091589;28;20027;-78
2022/05/23 06:01:13;;;;;;;4.32;1.02;;;;;;;16.47;100.00;101028.34;5092792;28;20111;-78
2022/05/23 06:03:40;;;;;;;4.10;1.50;;;;;;;16.43;100.00;101044.28;5055762;28;20119;-78
2022/05/23 06:11:33;;;;;;;4.85;1.10;;;;;;;17.21;100.00;101038.84;5091796;28;20086;-78
2022/05/23 06:14:01;;;;;;;5.28;1.40;;;;;;;17.03;100.00;101035.19;5093758;28;20070;-78
2022/05/23 06:16:29;;;;;;;2.20;0.93;;;;;;;16.86;100.00;101035.06;5089223;28;20013;-78
2022/05/23 06:18:56;;;;;;;4.72;1.50;;;;;;;16.80;100.00;101046.88;5095197;28;20445;-78
2022/05/23 06:21:23;;;;;;;3.40;1.20;;;;;;;16.76;100.00;101042.16;5094974;28;20477;-78
2022/05/23 06:23:48;;;;;;;5.05;1.05;;;;;;;16.87;100.00;101054.91;5094096;28;20044;-78
2022/05/23 06:26:15;;;;;;;3.65;1.25;;;;;;;16.95;100.00;101051.84;5075054;28;20132;-78
2022/05/23 06:28:41;;;;;;;5.45;1.05;;;;;;;16.97;100.00;101048.91;5092843;28;20086;-78
2022/05/23 06:31:06;;;;;;;4.15;1.58;;;;;;;17.00;100.00;101056.59;5089110;28;20029;-78
2022/05/23 06:33:32;;;;;;;4.20;1.05;;;;;;;17.03;100.00;101046.06;5074388;28;20343;-78
2022/05/23 06:35:57;;;;;;;3.42;1.30;;;;;;;17.00;100.00;101048.44;5086989;28;20089;-78
2022/05/23 06:38:24;;;;;;;3.95;1.30;;;;;;;16.92;100.00;101046.91;5094372;28;20482;-78
2022/05/23 06:40:51;;;;;;;4.18;1.40;;;;;;;16.97;100.00;101046.19;5091395;28;20028;-78
2022/05/23 06:43:17;;;;;;;4.13;1.38;;;;;;;16.99;100.00;101041.34;5095905;28;20334;-78
2022/05/23 06:45:42;;;;;;;4.93;1.20;;;;;;;17.01;100.00;101045.47;5095011;28;20055;-78
2022/05/23 06:48:09;;;;;;;3.63;1.17;;;;;;;17.10;100.00;101054.09;5096530;28;20055;-78
2022/05/23 06:50:34;;;;;;;4.68;1.20;;;;;;;17.19;100.00;101058.13;5095598;28;20059;-78
2022/05/23 06:53:00;;;;;;;4.63;1.52;;;;;;;16.91;100.00;101002.56;5076678;28;20201;-78
2022/05/23 06:55:25;;;;;;;2.72;1.15;;;;;;;17.23;100.00;101040.28;5075527;28;20040;-78
2022/05/23 06:57:51;;;;;;;3.53;1.35;;;;;;;17.51;100.00;101050.38;5072744;28;20462;-78
2022/05/23 07:00:17;;;;;;;5.45;1.33;;;;;;;17.76;100.00;101041.97;5073997;28;20238;-78
2022/05/23 07:02:43;;;;;;;4.80;1.40;;;;;;;17.93;100.00;101041.22;5091446;28;20422;-78
2022/05/23 07:13:20;;;;;;;4.65;1.10;;;;;;;18.15;99.14;101025.88;5093961;28;20093;-79
2022/05/23 07:15:48;;;;;;;3.83;1.27;;;;;;;18.26;98.21;101041.31;5092208;28;20040;-78
2022/05/23 07:18:15;;;;;;;2.72;1.20;;;;;;;18.42;96.90;101041.59;5073053;28;20028;-78
2022/05/23 07:20:41;;;;;;;4.80;1.42;;;;;;;18.47;96.40;101042.50;5090276;28;20122;-78
2022/05/23 07:23:06;;;;;;;2.88;1.08;;;;;;;18.44;96.80;101031.25;5081166;28;20141;-79
2022/05/23 07:25:32;;;;;;;3.75;1.65;;;;;;;18.34;97.07;101021.00;5093594;28;20028;-78
2022/05/23 07:27:57;;;;;;;4.03;1.33;;;;;;;18.40;95.74;101030.94;5091388;28;20044;-79
2022/05/23 07:30:23;;;;;;;3.67;1.20;;;;;;;18.30;95.13;101015.22;5094541;28;20023;-78
2022/05/23 07:32:49;;;;;;;4.07;1.30;;;;;;;18.42;95.50;101023.34;5093560;28;20051;-78
2022/05/23 07:35:16;;;;;;;3.28;1.10;;;;;;;18.42;95.90;101027.97;5092373;28;20055;-78
2022/05/23 07:37:44;;;;;;;3.25;1.30;;;;;;;18.42;96.79;101020.63;5092864;28;20115;-78
2022/05/23 07:40:11;;;;;;;3.55;1.13;;;;;;;18.40;96.20;101011.84;5074785;28;20054;-78
2022/05/23 07:42:36;;;;;;;4.55;1.40;;;;;;;18.48;96.43;101016.09;5092845;28;20028;-78
2022/05/23 07:45:03;;;;;;;3.42;1.17;;;;;;;18.65;95.37;101008.75;5093292;28;20062;-79
2022/05/23 07:47:29;;;;;;;3.65;1.20;;;;;;;18.63;94.64;101010.88;5090787;28;20500;-79
2022/05/23 07:49:54;;;;;;;3.10;1.13;;;;;;;18.61;94.33;101004.03;5094024;28;20060;-79
2022/05/23 07:52:21;;;;;;;4.05;1.25;;;;;;;18.64;93.20;100993.47;5075393;28;20024;-79
2022/05/23 08:00:33;;;;;;;3.20;1.02;;;;;;;18.87;92.63;100999.84;5095212;28;20035;-78
2022/05/23 08:03:06;;;;;;;6.25;2.10;;;;;;;18.94;93.35;101005.94;5092104;28;20445;-78
2022/05/23 08:05:32;;;;;;;2.45;1.00;;;;;;;18.82;93.57;100978.78;5093049;28;20032;-78
2022/05/23 08:07:58;;;;;;;4.57;1.30;;;;;;;18.95;94.00;100991.25;5092422;28;20035;-78
2022/05/23 08:10:25;;;;;;;4.28;1.20;;;;;;;19.12;93.26;101000.22;5087234;28;20530;-78
2022/05/23 08:12:53;;;;;;;3.33;0.98;;;;;;;19.02;90.13;100997.34;5093058;28;20043;-78
2022/05/23 08:15:20;;;;;;;4.55;1.33;;;;;;;18.93;89.64;100977.84;5092016;28;20039;-79
2022/05/23 08:17:46;;;;;;;5.03;1.30;;;;;;;19.17;89.21;100991.25;5091997;28;20089;-79
2022/05/23 08:20:13;;;;;;;4.53;1.35;;;;;;;19.05;86.77;100991.38;5070993;28;20028;-78
2022/05/23 08:22:38;;;;;;;2.25;0.80;;;;;;;19.17;88.03;100973.03;5073134;28;20113;-79
2022/05/23 08:25:04;;;;;;;3.20;1.10;;;;;;;19.31;87.50;100999.94;5088559;28;20187;-78
2022/05/23 08:27:31;;;;;;;3.50;0.90;;;;;;;19.41;86.58;100991.88;5074234;28;20086;-78
2022/05/23 08:29:56;;;;;;;4.72;1.00;;;;;;;19.40;85.31;100973.84;5104083;28;20093;-79
2022/05/23 08:32:21;;;;;;;2.83;1.08;;;;;;;19.24;85.86;100975.56;5092455;28;20032;-78
2022/05/23 08:34:50;;;;;;;3.97;1.08;;;;;;;19.03;87.54;100974.44;5072791;28;20031;-78
2022/05/23 08:37:15;;;;;;;4.05;1.20;;;;;;;19.03;88.02;100982.63;5092731;28;20059;-78
2022/05/23 08:39:41;;;;;;;3.13;1.17;;;;;;;18.99;87.15;100965.94;5094183;28;20114;-79
2022/05/23 08:42:33;;;;;;;4.07;1.10;;;;;;;19.34;86.28;100974.88;5071341;28;20020;-79
2022/05/23 08:45:19;;;;;;;2.55;1.00;;;;;;;19.42;84.48;100968.97;5063173;28;20098;-79
2022/05/23 08:48:03;;;;;;;3.95;1.00;;;;;;;19.48;82.88;100968.78;5089512;28;20434;-79
2022/05/23 08:50:35;;;;;;;4.88;1.20;;;;;;;19.59;82.69;100966.97;5090775;28;20035;-79
2022/05/23 08:53:10;;;;;;;3.63;0.98;;;;;;;19.55;79.00;100965.84;5093845;28;20016;-78
2022/05/23 08:55:43;;;;;;;4.05;0.93;;;;;;;19.55;81.57;100968.59;5094807;28;20102;-78
2022/05/23 08:58:13;;;;;;;2.75;1.10;;;;;;;19.61;81.36;100964.00;5094361;28;20020;-79
2022/05/23 09:00:50;;;;;;;4.47;1.02;;;;;;;19.51;80.82;100944.78;5089042;28;20015;-78
2022/05/23 09:03:41;;;;;;;3.60;0.90;;;;;;;19.64;80.09;100967.09;5094802;28;20028;-78
2022/05/23 09:06:21;;;;;;;3.45;0.85;;;;;;;19.75;80.46;100962.56;5097772;28;20084;-79
2022/05/23 09:08:51;;;;;;;3.60;1.13;;;;;;;19.67;81.78;100952.94;5096391;28;20027;-78
2022/05/23 09:11:28;;;;;;;5.28;1.15;;;;;;;19.68;80.85;100957.28;5090407;28;20076;-79
2022/05/23 09:13:55;;;;;;;3.63;1.10;;;;;;;19.61;81.95;100943.00;5096826;28;20032;-78
2022/05/23 09:16:24;;;;;;;4.93;1.02;;;;;;;19.58;82.05;100937.22;5074112;28;20038;-78
2022/05/23 09:19:05;;;;;;;3.38;0.82;;;;;;;19.30;81.04;100919.97;5092994;28;20073;-79
2022/05/23 09:22:14;;;;;;;3.20;0.93;;;;;;;19.50;81.53;100954.84;5096229;28;20112;-78
2022/05/23 09:24:20;;;;;;;4.20;0.95;;;;;;;19.40;81.93;100954.72;5089156;28;20043;-78
2022/05/23 09:26:46;;;;;;;3.92;1.10;;;;;;;19.26;81.70;100940.66;5078487;28;20351;-78
2022/05/23 09:29:11;;;;;;;3.72;1.10;;;;;;;19.22;82.62;100953.97;5094713;28;20110;-79
2022/05/23 09:32:06;;;;;;;4.70;1.13;;;;;;;19.02;83.68;100930.00;5095871;28;20353;-78
2022/05/23 09:34:37;;;;;;;2.37;0.80;;;;;;;19.22;82.51;100947.69;5093729;28;20031;-79
2022/05/23 09:37:12;;;;;;;3.17;0.90;;;;;;;19.34;83.80;100931.22;5097276;28;20097;-78
2022/05/23 09:39:50;;;;;;;4.80;0.98;;;;;;;19.53;81.74;100942.63;5093433;28;20012;-78
2022/05/23 09:48:09;;;;;;;4.15;0.75;;;;;;;19.68;79.47;100942.81;5099913;28;20116;-79
2022/05/23 09:50:38;;;;;;;4.50;1.02;;;;;;;19.66;78.72;100934.06;5077306;28;20020;-78
2022/05/23 09:53:26;;;;;;;7.15;0.82;;;;;;;19.61;76.72;100923.88;5095946;28;20038;-78
2022/05/23 09:55:53;;;;;;;2.05;0.80;;;;;;;19.60;74.51;100932.31;5091722;28;20028;-78
2022/05/23 09:58:27;;;;;;;2.38;0.70;;;;;;;19.65;74.18;100918.78;5090560;28;20032;-79
2022/05/23 10:01:09;;;;;;;2.33;0.90;;;;;;;19.83;72.87;100934.78;5107537;28;20428;-79
2022/05/23 10:03:46;;;;;;;3.95;0.75;;;;;;;19.67;73.22;100914.72;5105682;28;20445;-78
2022/05/23 10:06:12;;;;;;;3.92;1.00;;;;;;;19.86;67.61;100919.78;5083198;28;20028;-78
2022/05/23 10:08:44;;;;;;;3.97;0.93;;;;;;;19.90;66.77;100920.91;5095624;28;20433;-79
2022/05/23 10:11:18;;;;;;;1.23;0.70;;;;;;;19.93;66.33;100923.97;5091710;28;20417;-79
2022/05/23 10:13:48;;;;;;;;;;;;;;;19.85;66.92;100926.34;5094557;28;20028;-79
2022/05/23 10:16:18;;;;;;;3.75;0.85;;;;;;;19.91;67.63;100914.41;5094135;28;19912;-79
2022/05/23 10:18:52;;;;;;;4.07;1.20;;;;;;;19.95;67.05;100901.88;5095825;28;20501;-79
2022/05/23 10:21:36;;;;;;;;;;;;;;;20.06;67.51;100919.97;5093667;28;20388;-79
2022/05/23 10:24:05;;;;;;;3.63;0.90;;;;;;;20.14;68.48;100918.69;5093761;28;20257;-79
2022/05/23 10:26:35;;;;;;;4.50;1.38;;;;;;;20.00;69.01;100912.84;5095684;28;20067;-80
2022/05/23 10:29:26;;;;;;;5.57;1.33;;;;;;;19.80;68.29;100902.56;5092297;28;20016;-78
2022/05/23 10:32:02;;;;;;;5.50;1.05;;;;;;;19.67;69.38;100898.31;5094937;28;20116;-78
2022/05/23 10:34:51;;;;;;;4.60;1.10;;;;;;;19.61;69.67;100896.59;5093027;28;20020;-78
2022/05/23 10:37:28;;;;;;;7.45;1.10;;;;;;;19.70;69.54;100894.22;5094245;28;20024;-79
2022/05/23 10:42:48;;;;;;;3.25;1.10;;;;;;;19.82;67.49;100877.72;5094115;28;20059;-79
2022/05/23 10:45:22;;;;;;;4.05;0.98;;;;;;;19.89;67.75;100881.88;5094906;28;20048;-79
2022/05/23 10:48:28;;;;;;;4.90;0.90;;;;;;;20.06;67.13;100873.53;5091327;28;20085;-78
2022/05/23 10:51:29;;;;;;;3.42;0.98;;;;;;;19.99;65.86;100881.13;5078865;28;20519;-78
2022/05/23 10:54:16;;;;;;;2.88;0.82;;;;;;;20.09;66.40;100894.06;5091541;28;20024;-79
2022/05/23 10:56:57;;;;;;;3.50;1.02;;;;;;;19.96;65.76;100876.19;5096818;28;20024;-79
2022/05/23 10:59:46;;;;;;;3.90;0.82;;;;;;;19.99;64.25;100881.13;5092981;28;20077;-78
2022/05/23 11:02:39;;;;;;;6.13;1.23;;;;;;;19.99;65.37;100880.31;5083675;28;20041;-79
2022/05/23 11:05:12;;;;;;;4.80;0.90;;;;;;;20.05;65.19;100882.00;5093829;28;20021;-78
2022/05/23 11:08:16;;;;;;;4.28;1.05;;;;;;;20.06;65.27;100895.41;5093586;28;20165;-79
2022/05/23 11:11:01;;;;;;;3.05;0.80;;;;;;;20.17;64.86;100869.81;5095604;28;20032;-78
2022/05/23 11:13:49;;;;;;;5.63;1.15;;;;;;;20.25;64.50;100878.63;5091430;28;20126;-79
2022/05/23 11:16:26;;;;;;;3.55;0.80;;;;;;;20.28;64.01;100883.56;5079347;28;20016;-79
2022/05/23 11:19:23;;;;;;;2.70;0.80;;;;;;;20.13;61.94;100860.50;5087806;28;20020;-79
2022/05/23 11:22:28;;;;;;;4.18;1.00;;;;;;;20.14;62.82;100870.34;5087856;28;20067;-79
2022/05/23 11:25:22;;;;;;;4.32;0.90;;;;;;;20.24;62.22;100868.78;5091155;28;20040;-79
2022/05/23 11:33:58;;;;;;;4.68;1.00;;;;;;;20.07;61.94;100860.72;5083868;28;20086;-78
2022/05/23 11:36:44;;;;;;;2.33;0.70;;;;;;;20.17;61.53;100838.94;5092163;28;20470;-79
2022/05/23 11:39:59;;;;;;;4.05;0.90;;;;;;;20.08;60.83;100816.75;5090011;28;20020;-78
2022/05/23 11:42:26;;;;;;;2.37;0.80;;;;;;;20.01;60.59;100857.13;5074481;28;20095;-78
2022/05/23 11:47:59;;;;;;;2.53;0.82;;;;;;;19.84;60.62;100848.25;5092349;28;20089;-79
2022/05/23 11:50:34;;;;;;;2.60;0.70;;;;;;;19.80;61.50;100852.56;5092771;28;20099;-79
2022/05/23 11:53:27;;;;;;;2.20;0.70;;;;;;;19.82;61.02;100809.44;5090886;28;20084;-78
2022/05/23 11:55:53;;;;;;;3.75;1.10;;;;;;;19.75;61.85;100839.69;5083234;28;20476;-78
2022/05/23 11:58:36;;;;;;;2.05;0.73;;;;;;;20.11;62.18;100832.63;5091130;28;20020;-79
2022/05/23 12:01:09;;;;;;;3.13;1.10;;;;;;;20.55;61.79;100826.91;5090509;28;20019;-79
2022/05/23 12:03:47;;;;;;;3.65;0.88;;;;;;;20.72;59.35;100815.78;5095405;28;20027;-79
2022/05/23 12:06:24;;;;;;;3.55;0.85;;;;;;;20.68;59.41;100819.31;5086301;28;20115;-79
2022/05/23 12:09:01;;;;;;;4.20;0.90;;;;;;;20.47;58.39;100832.88;5089045;28;20449;-79
2022/05/23 12:11:32;;;;;;;5.35;0.98;;;;;;;20.56;58.45;100812.19;5088660;28;20464;-79
2022/05/23 12:14:20;;;;;;;3.88;0.80;;;;;;;20.50;58.62;100815.94;5091893;28;20511;-79
2022/05/23 12:17:05;;;;;;;3.45;0.90;;;;;;;20.37;58.86;100828.16;5089784;28;20156;-79
2022/05/23 12:19:39;;;;;;;4.07;1.05;;;;;;;20.41;59.00;100812.06;5073869;28;20103;-79
2022/05/23 12:22:24;;;;;;;;;;;;;;;20.32;60.05;100808.16;5072489;28;20020;-79
2022/05/23 12:25:07;;;;;;;3.50;0.90;;;;;;;20.32;59.59;100805.44;5092132;28;20362;-79
2022/05/23 12:28:00;;;;;;;3.60;1.00;;;;;;;20.06;60.17;100747.88;5081430;28;20028;-79
2022/05/23 12:30:42;;;;;;;4.45;1.33;;;;;;;20.35;59.30;100800.25;5090308;28;20040;-79